Stone Cabin, Nevada Weather observations

Data are for observation ending at time listed.
 Day   Time    Ave.   Ave.  Ave.  Vector   Max.   Stn.    Total    Solar   Ave.  
  of    of     Air    Rel.  Wind   Wind    Wind   Baro.  Precip.   Rad.    Soil  
Year   Day     Temp.  Hum.  Speed  Dir.    Gust   Pres.                    Temp. 
2017   (PST)    F      %     mph   deg.    mph     mb.     in.     W/m2     F   
------------------------------------------------------------------------------
  17    4:00   14.1    86    1.9   308      4.1    824     0.00       0    32.9
  17    5:00   13.6    86    0.7   291      2.7    824     0.00       0    32.8
  17    6:00   13.3    84    1.7   287      4.1    825     0.00       0    32.7
  17    7:00   11.7    85    1.3   310      3.5    825     0.00       0    32.7
  17    8:00   12.7    84    1.3   308      2.8    825     0.00      25    32.6
  17    9:00   20.0    75    1.9   323      5.4    825     0.00     136    32.5
  17   10:00   29.0    49    2.0   321      4.3    825     0.00     209    32.6
  17   11:00   35.4    35    0.6   354      2.6    825     0.00     472    32.6
  17   12:00   38.4    31    0.9   318      4.5    824     0.00     575    32.7
  17   13:00   42.0    24    1.4   147      4.4    823     0.00     546    32.7
  17   14:00   43.8    23    2.0   159      5.3    823     0.00     495    32.7
  17   15:00   43.8    22    2.7   118      5.8    823     0.00     375    32.7
  17   16:00   44.9    19    1.0   127      4.4    823     0.00     212    32.7
  17   17:00   37.6    40    2.0   113      4.4    823     0.00      31    32.9
  17   18:00   31.8    56    0.7   331      3.1    823     0.00       0    32.8
  17   19:00   29.0    63    0.3   237      2.3    824     0.00       0    32.7
  17   20:00   25.9    77    1.0   319      4.4    824     0.00       0    32.6
  17   21:00   23.9    84    0.4   289      3.1    824     0.00       0    32.6
  17   22:00   22.8    88    1.3   297      3.9    825     0.00       0    32.6
  17   23:00   21.1    90    1.3   302      2.9    824     0.00       0    32.6
  18    0:00   20.0    89    1.7   302      4.2    824     0.00       0    32.6
  18    1:00   20.1    86    1.7   309      4.2    824     0.00       0    32.6
  18    2:00   19.7    87    0.7   295      3.0    824     0.00       0    32.5
  18    3:00   18.4    87    1.6   299      3.5    824     0.00       0    32.5

Return to Stone Cabin, Nevada graphs page.


Western Regional Climate Center,wrcc@dri.edu